createdAt,value
2022-08-20T00:02:13.277Z,3.70
2022-08-20T00:07:12.800Z,4.10
2022-08-20T00:12:14.388Z,4.40
2022-08-20T00:17:13.054Z,4.00
2022-08-20T00:22:12.353Z,4.20
2022-08-20T00:27:11.494Z,3.80
2022-08-20T00:32:12.129Z,4.50
2022-08-20T00:37:11.103Z,4.30
2022-08-20T00:42:11.590Z,4.10
2022-08-20T00:47:10.692Z,4.10
2022-08-20T00:52:15.727Z,4.00
2022-08-20T00:57:28.028Z,4.00
2022-08-20T01:02:43.431Z,4.50
2022-08-20T01:07:42.818Z,4.60
2022-08-20T01:12:46.644Z,4.30
2022-08-20T01:17:50.840Z,4.20
2022-08-20T01:23:31.597Z,4.10
2022-08-20T01:28:39.277Z,4.70
2022-08-20T01:33:39.053Z,4.90
2022-08-20T01:38:39.454Z,4.70
2022-08-20T01:43:38.980Z,5.30
2022-08-20T01:48:39.839Z,4.70
2022-08-20T01:53:45.363Z,5.00
2022-08-20T01:58:51.493Z,5.20
2022-08-20T02:03:57.330Z,5.00
2022-08-20T02:09:00.319Z,4.60
2022-08-20T02:14:00.542Z,4.60
2022-08-20T02:19:10.118Z,4.90
2022-08-20T02:24:11.080Z,4.50
2022-08-20T02:29:13.753Z,4.00
2022-08-20T02:34:22.713Z,4.10
2022-08-20T02:39:21.659Z,4.20
2022-08-20T02:44:21.851Z,5.20
2022-08-20T02:49:21.396Z,4.90
2022-08-20T02:54:20.689Z,4.80
2022-08-20T02:59:20.169Z,5.10
2022-08-20T03:04:19.082Z,5.00
2022-08-20T03:09:23.774Z,5.40
2022-08-20T03:14:22.341Z,4.80
2022-08-20T03:19:21.177Z,4.70
2022-08-20T03:24:20.337Z,4.80
2022-08-20T03:29:18.592Z,5.40
2022-08-20T03:34:17.461Z,5.00
2022-08-20T03:39:16.893Z,4.80
2022-08-20T03:44:16.366Z,4.90
2022-08-20T03:49:16.918Z,5.10
2022-08-20T03:54:15.477Z,4.50
2022-08-20T03:59:14.732Z,5.30
2022-08-20T04:04:14.289Z,5.60
2022-08-20T04:09:13.173Z,6.00
2022-08-20T04:14:17.432Z,6.00
2022-08-20T04:19:18.168Z,5.50
2022-08-20T04:24:22.614Z,5.20
2022-08-20T04:29:35.271Z,5.10
2022-08-20T04:34:34.374Z,5.90
2022-08-20T04:39:34.456Z,5.60
2022-08-20T04:44:33.468Z,5.80
2022-08-20T04:49:32.742Z,5.90
2022-08-20T04:54:31.592Z,6.80
2022-08-20T04:59:30.588Z,6.90
2022-08-20T05:04:29.712Z,5.70
2022-08-20T05:09:28.541Z,6.30
2022-08-20T05:14:28.073Z,5.70
2022-08-20T05:19:29.220Z,6.00
2022-08-20T05:24:28.806Z,5.40
2022-08-20T05:29:29.069Z,7.10
2022-08-20T05:34:28.241Z,6.40
2022-08-20T05:39:27.469Z,5.60
2022-08-20T05:44:25.909Z,6.00
2022-08-20T05:49:25.815Z,5.40
2022-08-20T05:54:25.152Z,6.00
2022-08-20T05:59:24.457Z,5.80
2022-08-20T06:04:28.260Z,6.90
2022-08-20T06:09:32.028Z,12.20
2022-08-20T06:14:33.784Z,11.90
2022-08-20T06:19:33.301Z,6.80
2022-08-20T06:24:32.539Z,5.80
2022-08-20T06:29:33.330Z,5.80
2022-08-20T06:34:32.220Z,5.60
2022-08-20T06:39:32.351Z,5.90
2022-08-20T06:44:31.944Z,6.20
2022-08-20T06:49:35.274Z,6.20
2022-08-20T06:54:35.584Z,6.40
2022-08-20T06:59:34.344Z,6.10
2022-08-20T07:04:33.002Z,6.20
2022-08-20T07:09:32.006Z,6.10
2022-08-20T07:14:32.095Z,6.40
2022-08-20T07:19:31.616Z,5.80
2022-08-20T07:24:33.283Z,6.00
2022-08-20T07:29:47.641Z,6.10
2022-08-20T07:34:46.923Z,6.40
2022-08-20T07:39:51.514Z,6.20
2022-08-20T07:44:51.234Z,6.20
2022-08-20T07:49:50.140Z,6.00
2022-08-20T07:54:49.259Z,6.40
2022-08-20T07:59:48.986Z,5.90
2022-08-20T08:04:48.323Z,6.50
2022-08-20T08:09:48.891Z,6.30
2022-08-20T08:14:50.147Z,6.80
2022-08-20T08:19:53.185Z,6.20
2022-08-20T08:24:57.088Z,6.10
2022-08-20T08:29:56.774Z,6.50
2022-08-20T08:34:55.472Z,6.20
2022-08-20T08:39:56.049Z,5.90
2022-08-20T08:44:55.913Z,6.20
2022-08-20T08:50:00.799Z,6.20
2022-08-20T08:55:03.594Z,6.30
2022-08-20T09:00:10.171Z,6.00
2022-08-20T09:05:19.229Z,6.10
2022-08-20T09:10:23.196Z,5.60
2022-08-20T09:15:24.248Z,6.50
2022-08-20T09:20:26.920Z,5.70
2022-08-20T09:25:27.006Z,5.90
2022-08-20T09:30:27.300Z,5.90
2022-08-20T09:35:26.449Z,5.90
2022-08-20T09:40:25.979Z,6.20
2022-08-20T09:45:25.776Z,6.10
2022-08-20T09:50:24.362Z,5.80
2022-08-20T09:55:32.262Z,5.20
2022-08-20T10:00:32.143Z,5.90
2022-08-20T10:05:31.760Z,5.60
2022-08-20T10:10:30.999Z,5.40
2022-08-20T10:15:30.738Z,5.40
2022-08-20T10:20:30.362Z,4.80
2022-08-20T10:25:30.021Z,5.40
2022-08-20T10:30:29.605Z,5.10
2022-08-20T10:35:29.483Z,5.90
2022-08-20T10:40:28.861Z,5.40
2022-08-20T10:45:29.144Z,5.90
2022-08-20T10:50:30.482Z,5.50
2022-08-20T10:55:30.056Z,5.40
2022-08-20T11:00:33.856Z,5.30
2022-08-20T11:05:33.942Z,5.00
2022-08-20T11:10:36.934Z,5.40
2022-08-20T11:15:43.447Z,5.50
2022-08-20T11:20:42.297Z,5.40
2022-08-20T11:25:41.292Z,5.70
2022-08-20T11:30:41.911Z,5.80
2022-08-20T11:35:48.852Z,5.60
2022-08-20T11:40:48.975Z,5.20
2022-08-20T11:45:51.104Z,5.40
2022-08-20T11:50:50.940Z,5.80
2022-08-20T11:55:50.152Z,5.80
2022-08-20T12:00:49.628Z,5.40
2022-08-20T12:05:50.230Z,5.70
2022-08-20T12:10:49.522Z,5.70
2022-08-20T12:15:50.266Z,5.60
2022-08-20T12:20:48.920Z,6.10
2022-08-20T12:25:49.802Z,6.40
2022-08-20T12:30:48.786Z,6.30
